createdAt,value
2023-02-08T00:00:44.560Z,67.45
2023-02-08T00:03:29.646Z,66.57
2023-02-08T00:09:51.687Z,67.12
2023-02-08T00:12:43.377Z,67.16
2023-02-08T00:15:43.925Z,66.90
2023-02-08T00:18:43.358Z,67.16
2023-02-08T00:21:38.965Z,66.96
2023-02-08T00:24:26.430Z,67.11
2023-02-08T00:27:16.380Z,67.41
2023-02-08T00:30:24.912Z,67.27
2023-02-08T00:33:50.367Z,67.61
2023-02-08T00:36:54.662Z,67.95
2023-02-08T00:42:35.220Z,68.11
2023-02-08T00:45:29.460Z,67.96
2023-02-08T00:48:20.316Z,67.98
2023-02-08T00:51:29.645Z,67.43
2023-02-08T00:54:36.828Z,68.23
2023-02-08T00:57:35.464Z,67.77
2023-02-08T01:00:28.865Z,67.76
2023-02-08T01:03:22.005Z,68.48
2023-02-08T01:06:35.166Z,68.56
2023-02-08T01:09:58.116Z,68.73
2023-02-08T01:12:39.966Z,68.29
2023-02-08T01:18:55.654Z,68.83
2023-02-08T01:24:30.921Z,68.81
2023-02-08T01:27:17.316Z,68.90
2023-02-08T01:30:11.008Z,68.62
2023-02-08T01:32:54.895Z,68.92
2023-02-08T01:35:41.856Z,69.20
2023-02-08T01:38:26.800Z,68.92
2023-02-08T01:41:32.519Z,68.93
2023-02-08T01:44:51.487Z,69.00
2023-02-08T01:47:46.714Z,68.77
2023-02-08T01:50:18.642Z,68.77
2023-02-08T01:53:22.675Z,68.94
2023-02-08T01:56:33.397Z,68.60
2023-02-08T01:59:55.228Z,69.21
2023-02-08T02:02:35.792Z,69.21
2023-02-08T02:05:27.252Z,68.75
2023-02-08T02:09:06.463Z,68.97
2023-02-08T02:12:18.954Z,68.72
2023-02-08T02:15:04.751Z,68.53
2023-02-08T02:18:06.379Z,68.70
2023-02-08T02:21:20.744Z,68.50
2023-02-08T02:28:05.168Z,68.60
2023-02-08T02:31:21.605Z,68.61
2023-02-08T02:34:19.744Z,69.11
2023-02-08T02:37:07.324Z,68.98
2023-02-08T02:39:57.419Z,68.69
2023-02-08T02:42:52.889Z,68.73
2023-02-08T02:45:29.395Z,68.89
2023-02-08T02:48:04.780Z,69.21
2023-02-08T02:50:37.894Z,69.42
2023-02-08T02:53:20.861Z,68.81
2023-02-08T02:55:51.684Z,68.80
2023-02-08T02:58:23.044Z,69.12
2023-02-08T03:00:54.989Z,69.16
2023-02-08T03:03:25.244Z,69.06
2023-02-08T03:05:57.843Z,68.81
2023-02-08T03:08:56.533Z,68.62
2023-02-08T03:11:27.439Z,69.26
2023-02-08T03:14:10.436Z,69.41
2023-02-08T03:17:00.556Z,68.73
2023-02-08T03:19:36.344Z,68.85
2023-02-08T03:22:13.539Z,68.67
2023-02-08T03:24:47.742Z,68.81
2023-02-08T03:27:23.866Z,69.03
2023-02-08T03:29:57.138Z,69.10
2023-02-08T03:32:30.977Z,69.42
2023-02-08T03:35:04.674Z,69.24
2023-02-08T03:37:38.139Z,69.22
2023-02-08T03:40:12.264Z,69.01
2023-02-08T03:42:41.394Z,69.41
2023-02-08T03:45:15.853Z,69.11
2023-02-08T03:47:47.368Z,70.43
2023-02-08T03:50:18.403Z,70.84
2023-02-08T03:52:49.268Z,70.37
2023-02-08T03:55:21.443Z,70.17
2023-02-08T03:57:53.256Z,70.76
2023-02-08T04:00:22.805Z,70.51
2023-02-08T04:03:00.571Z,69.73
2023-02-08T04:05:29.506Z,69.78
2023-02-08T04:07:58.754Z,69.83
2023-02-08T04:10:26.754Z,70.39
2023-02-08T04:12:54.739Z,69.97
2023-02-08T04:15:23.459Z,70.41
2023-02-08T04:17:51.596Z,70.51
2023-02-08T04:20:19.793Z,70.71
2023-02-08T04:22:47.639Z,70.27
2023-02-08T04:25:17.091Z,70.84
2023-02-08T04:27:44.938Z,71.07
2023-02-08T04:30:13.923Z,70.48
2023-02-08T04:32:41.804Z,70.53
2023-02-08T04:35:09.688Z,71.46
2023-02-08T04:37:37.644Z,71.21
2023-02-08T04:40:06.226Z,70.83
2023-02-08T04:42:36.019Z,71.36
2023-02-08T04:45:04.001Z,71.43
2023-02-08T04:47:32.036Z,70.76
2023-02-08T04:49:59.858Z,70.69
2023-02-08T04:52:27.746Z,71.81
2023-02-08T04:54:55.708Z,71.73
2023-02-08T04:57:23.560Z,71.13
2023-02-08T04:59:52.818Z,71.48
2023-02-08T05:02:20.790Z,71.48
2023-02-08T05:04:48.664Z,71.25
2023-02-08T05:07:16.567Z,71.54
2023-02-08T05:09:44.738Z,71.34
2023-02-08T05:12:12.653Z,71.83
2023-02-08T05:14:40.774Z,71.56
2023-02-08T05:17:10.123Z,71.85
2023-02-08T05:19:38.101Z,71.69
2023-02-08T05:22:06.093Z,71.05
2023-02-08T05:24:34.024Z,71.28
2023-02-08T05:27:01.975Z,71.00
2023-02-08T05:29:30.018Z,71.43
2023-02-08T05:31:58.104Z,71.76
2023-02-08T05:34:27.394Z,71.68
2023-02-08T05:36:56.024Z,71.62
2023-02-08T05:39:24.052Z,71.85
2023-02-08T05:41:51.940Z,71.98
2023-02-08T05:44:19.846Z,71.80
2023-02-08T05:46:48.034Z,71.58
2023-02-08T05:49:15.942Z,71.55
2023-02-08T05:51:45.158Z,71.82
2023-02-08T05:54:13.137Z,71.80
2023-02-08T05:56:40.997Z,71.59
2023-02-08T05:59:10.035Z,71.45
2023-02-08T06:01:38.522Z,71.07
2023-02-08T06:04:06.759Z,70.95
2023-02-08T06:06:34.679Z,70.54
2023-02-08T06:09:04.953Z,70.68
2023-02-08T06:11:33.068Z,70.95
2023-02-08T06:14:01.088Z,70.85
2023-02-08T06:16:29.119Z,70.29
2023-02-08T06:18:57.076Z,70.54
2023-02-08T06:21:25.057Z,70.46
2023-02-08T06:23:53.127Z,70.20
2023-02-08T06:26:22.356Z,70.57
2023-02-08T06:28:50.228Z,70.50
2023-02-08T06:31:18.276Z,70.49
2023-02-08T06:33:46.273Z,70.23
2023-02-08T06:36:14.169Z,70.17
2023-02-08T06:38:42.180Z,69.69
2023-02-08T06:41:10.038Z,69.99
2023-02-08T06:43:40.786Z,70.45
2023-02-08T06:46:08.819Z,70.12
2023-02-08T06:48:36.827Z,69.65
2023-02-08T06:51:05.476Z,69.96
2023-02-08T06:53:33.542Z,70.03
2023-02-08T06:56:01.441Z,70.27
2023-02-08T06:58:29.304Z,69.77
2023-02-08T07:00:58.649Z,69.52
2023-02-08T07:03:26.551Z,69.59
2023-02-08T07:06:04.421Z,69.56
2023-02-08T07:08:33.289Z,69.83
2023-02-08T07:11:01.140Z,69.78
2023-02-08T07:13:28.993Z,69.21
2023-02-08T07:15:58.339Z,69.60
2023-02-08T07:18:26.304Z,69.83
2023-02-08T07:20:54.191Z,69.82
2023-02-08T07:23:22.202Z,69.38
2023-02-08T07:25:58.707Z,69.61
2023-02-08T07:28:27.070Z,69.59
2023-02-08T07:30:55.064Z,68.92
2023-02-08T07:33:25.202Z,70.31
2023-02-08T07:35:53.610Z,70.32
2023-02-08T07:38:21.425Z,69.80
2023-02-08T07:40:49.555Z,68.91
2023-02-08T07:43:17.492Z,69.35
2023-02-08T07:45:45.585Z,69.37
2023-02-08T07:48:13.487Z,69.12
2023-02-08T07:50:42.859Z,68.96
2023-02-08T07:53:10.954Z,69.76
2023-02-08T07:55:39.061Z,69.50
2023-02-08T07:58:07.293Z,69.33
2023-02-08T08:00:35.147Z,69.12
2023-02-08T08:03:03.350Z,68.08
2023-02-08T08:05:31.444Z,68.61
2023-02-08T08:08:00.696Z,68.56
2023-02-08T08:10:28.710Z,67.92
2023-02-08T08:12:56.569Z,67.98
2023-02-08T08:15:24.419Z,68.17
2023-02-08T08:17:52.321Z,67.92
2023-02-08T08:20:20.513Z,67.98
2023-02-08T08:22:48.451Z,68.24
2023-02-08T08:25:17.829Z,68.69
2023-02-08T08:27:46.210Z,68.45
2023-02-08T08:30:17.260Z,68.44
2023-02-08T08:32:45.356Z,68.39
2023-02-08T08:35:13.332Z,68.21
2023-02-08T08:37:41.256Z,68.86
2023-02-08T08:40:10.974Z,67.80
2023-02-08T08:42:40.963Z,67.68
2023-02-08T08:45:10.558Z,67.78
2023-02-08T08:47:38.400Z,67.04
2023-02-08T08:50:07.004Z,66.46
2023-02-08T08:52:34.934Z,65.80
2023-02-08T08:55:02.951Z,65.80
2023-02-08T08:57:31.048Z,65.11
2023-02-08T09:00:00.260Z,64.79
2023-02-08T09:02:28.216Z,64.71
2023-02-08T09:04:56.075Z,64.49
2023-02-08T09:07:24.004Z,64.40
2023-02-08T09:09:52.265Z,64.24
2023-02-08T09:12:20.377Z,63.64
2023-02-08T09:14:49.024Z,63.48
2023-02-08T09:17:18.823Z,62.27
2023-02-08T09:19:47.418Z,62.87
2023-02-08T09:22:16.458Z,62.60
2023-02-08T09:24:44.734Z,62.67
2023-02-08T09:27:15.973Z,62.47
2023-02-08T09:29:43.983Z,62.19
2023-02-08T09:32:12.271Z,61.65
2023-02-08T09:34:41.637Z,61.30
2023-02-08T09:37:09.593Z,61.65
2023-02-08T09:39:37.524Z,61.69
2023-02-08T09:42:32.001Z,61.05
2023-02-08T09:45:20.596Z,59.61
2023-02-08T09:47:55.972Z,59.12
2023-02-08T09:50:33.101Z,59.30
2023-02-08T09:53:05.935Z,59.49
2023-02-08T09:55:38.227Z,58.66
2023-02-08T09:58:20.518Z,58.04
2023-02-08T10:00:51.322Z,58.52
2023-02-08T10:03:30.244Z,58.11
2023-02-08T10:06:00.037Z,57.89
2023-02-08T10:08:35.318Z,58.57
2023-02-08T10:11:19.073Z,58.30
2023-02-08T10:14:02.864Z,57.88
2023-02-08T10:16:56.820Z,57.46
2023-02-08T10:19:43.862Z,57.61
2023-02-08T10:22:28.422Z,57.78
2023-02-08T10:25:11.123Z,57.65
2023-02-08T10:27:51.946Z,57.10
2023-02-08T10:30:34.199Z,56.82
2023-02-08T10:33:03.522Z,57.71
2023-02-08T10:35:37.480Z,56.84
2023-02-08T10:38:37.165Z,56.34
2023-02-08T10:41:10.286Z,57.02
2023-02-08T10:43:44.213Z,55.65
2023-02-08T10:46:23.944Z,56.17
2023-02-08T10:49:04.079Z,55.68
2023-02-08T10:51:32.144Z,56.15
2023-02-08T10:54:01.372Z,55.81
2023-02-08T10:56:45.275Z,55.86
2023-02-08T10:59:22.901Z,54.62
2023-02-08T11:01:51.965Z,54.27
2023-02-08T11:04:23.203Z,54.69
2023-02-08T11:06:54.366Z,54.90
2023-02-08T11:09:26.958Z,54.58
2023-02-08T11:11:56.377Z,54.00
2023-02-08T11:14:37.902Z,53.83
2023-02-08T11:17:27.423Z,53.19
2023-02-08T11:19:56.033Z,53.49
2023-02-08T11:22:27.767Z,53.97
2023-02-08T11:25:00.610Z,53.69
2023-02-08T11:27:36.493Z,54.69
2023-02-08T11:30:25.585Z,53.52
2023-02-08T11:33:23.381Z,52.85
2023-02-08T11:35:57.851Z,53.10
2023-02-08T11:38:28.608Z,53.90
2023-02-08T11:41:01.834Z,52.83
2023-02-08T11:43:32.807Z,52.40
2023-02-08T11:46:03.773Z,51.67
2023-02-08T11:48:41.303Z,51.52
2023-02-08T11:51:11.578Z,51.51
2023-02-08T11:53:42.507Z,51.96
2023-02-08T11:56:20.145Z,50.10
2023-02-08T11:59:03.778Z,49.46
2023-02-08T12:01:34.482Z,48.94
2023-02-08T12:04:05.698Z,49.36
2023-02-08T12:07:08.603Z,49.03
2023-02-08T12:10:12.072Z,48.16
2023-02-08T12:12:54.879Z,47.85
2023-02-08T12:15:31.951Z,47.90
2023-02-08T12:18:16.557Z,46.66
2023-02-08T12:20:52.124Z,46.46
2023-02-08T12:23:37.620Z,46.60
2023-02-08T12:26:22.384Z,46.05
2023-02-08T12:29:04.216Z,46.03
2023-02-08T12:31:46.456Z,45.46
2023-02-08T12:34:25.342Z,45.28
2023-02-08T12:37:26.460Z,44.77
2023-02-08T12:40:19.804Z,45.01
2023-02-08T12:42:59.146Z,45.39
2023-02-08T12:45:49.851Z,44.36
2023-02-08T12:48:28.622Z,43.88
2023-02-08T12:51:07.605Z,44.02
2023-02-08T12:53:40.987Z,44.27
2023-02-08T12:56:24.912Z,43.67
2023-02-08T12:59:01.979Z,43.92
2023-02-08T13:01:44.491Z,43.71
2023-02-08T13:04:16.147Z,43.26
2023-02-08T13:06:46.195Z,43.83
2023-02-08T13:09:21.724Z,42.88
2023-02-08T13:11:54.692Z,42.97
2023-02-08T13:14:33.618Z,42.93
2023-02-08T13:17:13.298Z,43.33
2023-02-08T13:19:59.983Z,42.87
2023-02-08T13:22:32.560Z,42.61
2023-02-08T13:25:07.436Z,42.07
2023-02-08T13:27:36.712Z,41.83
2023-02-08T13:30:06.469Z,41.80
2023-02-08T13:32:43.909Z,41.83
2023-02-08T13:35:21.347Z,42.37
2023-02-08T13:37:53.858Z,41.70
2023-02-08T13:40:28.529Z,42.38
2023-02-08T13:43:01.396Z,42.06
2023-02-08T13:45:40.737Z,41.34
2023-02-08T13:48:15.574Z,41.28
2023-02-08T13:50:48.542Z,41.55
2023-02-08T13:53:17.900Z,40.88
2023-02-08T13:55:58.112Z,40.79
2023-02-08T13:59:04.944Z,40.95
2023-02-08T14:01:35.937Z,41.43
2023-02-08T14:04:33.429Z,41.61
2023-02-08T14:07:13.758Z,41.94
2023-02-08T14:10:06.087Z,41.35
2023-02-08T14:12:41.224Z,41.68
2023-02-08T14:15:39.947Z,41.76
2023-02-08T14:18:25.602Z,41.78
2023-02-08T14:21:03.666Z,41.98
2023-02-08T14:23:40.202Z,42.81
2023-02-08T14:26:20.746Z,42.14
2023-02-08T14:28:56.291Z,42.64
2023-02-08T14:31:36.898Z,43.32
2023-02-08T14:34:05.053Z,42.82
2023-02-08T14:36:36.312Z,43.50
2023-02-08T14:39:22.605Z,43.79
2023-02-08T14:42:00.252Z,44.07
2023-02-08T14:45:02.635Z,44.43
2023-02-08T14:47:55.286Z,44.14
2023-02-08T14:50:29.213Z,44.96
2023-02-08T14:53:16.831Z,44.97
2023-02-08T14:55:49.709Z,45.31
2023-02-08T14:58:27.107Z,45.37
2023-02-08T15:00:56.961Z,45.27
2023-02-08T15:03:26.638Z,45.15
2023-02-08T15:06:49.963Z,45.29
2023-02-08T15:09:22.073Z,45.35
2023-02-08T15:12:00.019Z,45.72
2023-02-08T15:14:28.713Z,45.98
2023-02-08T15:16:57.984Z,45.61
2023-02-08T15:19:29.641Z,45.50
2023-02-08T15:22:20.874Z,45.43
2023-02-08T15:24:57.711Z,46.20
2023-02-08T15:27:28.323Z,46.77
2023-02-08T15:29:56.513Z,46.87
2023-02-08T15:32:26.735Z,47.80
2023-02-08T15:34:57.471Z,47.93
2023-02-08T15:37:26.288Z,48.19
2023-02-08T15:39:58.329Z,48.31
2023-02-08T15:42:28.891Z,48.26
2023-02-08T15:44:57.916Z,48.54
2023-02-08T15:47:30.420Z,49.10
2023-02-08T15:49:59.724Z,49.29
2023-02-08T15:52:31.265Z,49.76
2023-02-08T15:55:00.827Z,49.72
2023-02-08T15:57:36.018Z,49.79
2023-02-08T16:00:07.733Z,50.01
2023-02-08T16:02:36.522Z,49.95
2023-02-08T16:05:13.751Z,49.72
2023-02-08T16:07:46.059Z,50.40
2023-02-08T16:10:26.424Z,50.16
2023-02-08T16:12:57.554Z,50.53
2023-02-08T16:15:45.151Z,50.54
2023-02-08T16:18:36.282Z,51.12
2023-02-08T16:21:06.714Z,51.17
2023-02-08T16:23:38.611Z,51.47
2023-02-08T16:26:22.206Z,52.20
2023-02-08T16:28:59.283Z,52.37
2023-02-08T16:31:35.670Z,52.44
2023-02-08T16:34:06.439Z,52.76
2023-02-08T16:36:41.609Z,52.58
2023-02-08T16:39:36.294Z,52.77
2023-02-08T16:42:16.221Z,53.80
2023-02-08T16:45:00.491Z,53.74
2023-02-08T16:47:35.821Z,53.95
2023-02-08T16:50:03.851Z,54.71
2023-02-08T16:52:31.956Z,54.47
2023-02-08T16:55:00.447Z,54.62
2023-02-08T16:57:41.681Z,55.21
2023-02-08T17:00:26.083Z,54.96
2023-02-08T17:02:54.902Z,55.74
2023-02-08T17:05:24.544Z,55.48
2023-02-08T17:07:52.838Z,55.16
2023-02-08T17:10:27.639Z,55.13
2023-02-08T17:13:13.448Z,55.68
2023-02-08T17:15:47.255Z,55.02
2023-02-08T17:18:18.440Z,55.74
2023-02-08T17:20:59.726Z,55.24
2023-02-08T17:23:28.270Z,54.88
2023-02-08T17:25:56.273Z,55.27
2023-02-08T17:28:25.990Z,54.62
2023-02-08T17:30:54.435Z,55.12
2023-02-08T17:33:22.406Z,55.33
2023-02-08T17:35:52.416Z,55.42
2023-02-08T17:38:21.573Z,55.23
2023-02-08T17:40:49.593Z,56.10
2023-02-08T17:43:17.911Z,56.09
2023-02-08T17:45:48.126Z,56.62
2023-02-08T17:48:16.183Z,56.86
2023-02-08T17:50:50.976Z,57.76
2023-02-08T17:53:19.694Z,58.45
2023-02-08T17:55:47.943Z,58.36
2023-02-08T17:58:16.041Z,58.92
2023-02-08T18:00:46.460Z,59.01
2023-02-08T18:03:18.149Z,59.76
2023-02-08T18:05:46.074Z,60.11
2023-02-08T18:08:14.298Z,60.21
2023-02-08T18:10:42.712Z,60.14
2023-02-08T18:13:10.846Z,60.76
2023-02-08T18:15:38.724Z,60.75
2023-02-08T18:18:06.810Z,60.46
2023-02-08T18:20:36.073Z,60.75
2023-02-08T18:23:03.972Z,61.83
2023-02-08T18:25:31.959Z,61.59
2023-02-08T18:27:59.861Z,61.57
2023-02-08T18:30:28.084Z,61.96
2023-02-08T18:32:56.185Z,62.08
2023-02-08T18:35:24.078Z,62.59
2023-02-08T18:37:53.738Z,62.22
2023-02-08T18:40:21.986Z,62.45
2023-02-08T18:42:50.010Z,62.59
2023-02-08T18:45:18.238Z,62.64
2023-02-08T18:47:46.483Z,62.74
2023-02-08T18:50:14.554Z,62.23
2023-02-08T18:52:42.461Z,62.69
2023-02-08T18:55:11.995Z,63.42
2023-02-08T18:57:41.114Z,63.07
2023-02-08T19:00:10.830Z,64.06
2023-02-08T19:02:39.714Z,64.30
2023-02-08T19:05:08.509Z,64.43
2023-02-08T19:07:36.692Z,64.58
2023-02-08T19:10:05.677Z,64.32
2023-02-08T19:12:37.387Z,64.35
2023-02-08T19:15:07.459Z,64.90
2023-02-08T19:17:35.492Z,64.26
2023-02-08T19:20:03.535Z,64.85
2023-02-08T19:22:31.679Z,64.97
2023-02-08T19:24:59.526Z,64.96
2023-02-08T19:27:27.368Z,65.76
2023-02-08T19:29:57.188Z,64.82
2023-02-08T19:32:25.223Z,65.83
2023-02-08T19:34:53.099Z,65.43
2023-02-08T19:37:21.172Z,65.52
2023-02-08T19:39:49.150Z,65.82
2023-02-08T19:42:17.056Z,65.51
2023-02-08T19:44:45.028Z,64.98
2023-02-08T19:47:14.394Z,65.37
2023-02-08T19:49:42.444Z,64.61
2023-02-08T19:52:10.348Z,64.86
2023-02-08T19:54:38.291Z,64.89
2023-02-08T19:57:06.614Z,65.22
2023-02-08T19:59:35.440Z,65.60
2023-02-08T20:02:03.749Z,65.45
2023-02-08T20:04:33.598Z,65.66
2023-02-08T20:07:02.020Z,65.07
2023-02-08T20:09:29.912Z,64.95
2023-02-08T20:11:59.567Z,65.57
2023-02-08T20:14:40.083Z,65.48
2023-02-08T20:17:13.719Z,65.22
2023-02-08T20:19:45.125Z,65.45
2023-02-08T20:22:15.022Z,65.21
2023-02-08T20:24:46.663Z,65.59
2023-02-08T20:27:14.632Z,65.73
2023-02-08T20:29:42.581Z,65.58
2023-02-08T20:32:10.738Z,65.74
2023-02-08T20:34:40.954Z,65.45
2023-02-08T20:37:20.905Z,64.96
2023-02-08T20:39:48.894Z,65.54
2023-02-08T20:42:16.908Z,65.57
2023-02-08T20:44:45.068Z,64.64
2023-02-08T20:47:14.248Z,64.98
2023-02-08T20:49:44.361Z,64.89
2023-02-08T20:52:12.893Z,64.86
2023-02-08T20:54:42.653Z,64.62
2023-02-08T20:57:13.749Z,65.12
2023-02-08T20:59:42.053Z,64.69
2023-02-08T21:02:16.519Z,64.74
2023-02-08T21:04:44.447Z,64.96
2023-02-08T21:07:12.509Z,64.27
2023-02-08T21:09:40.700Z,64.86
2023-02-08T21:12:10.205Z,64.44
2023-02-08T21:14:38.238Z,64.90
2023-02-08T21:17:06.539Z,64.76
2023-02-08T21:19:34.491Z,64.55
2023-02-08T21:22:04.208Z,64.71
2023-02-08T21:24:32.228Z,64.90
2023-02-08T21:27:00.092Z,64.28
2023-02-08T21:29:32.795Z,64.56
2023-02-08T21:32:00.785Z,64.93
2023-02-08T21:34:29.347Z,64.45
2023-02-08T21:37:00.693Z,65.07
2023-02-08T21:39:28.690Z,64.77
2023-02-08T21:41:56.937Z,64.63
2023-02-08T21:44:24.914Z,65.21
2023-02-08T21:46:54.545Z,64.62
2023-02-08T21:49:40.272Z,65.15
2023-02-08T21:52:25.609Z,64.81
2023-02-08T21:54:54.084Z,64.95
2023-02-08T21:57:23.686Z,65.07
2023-02-08T21:59:53.795Z,64.93
2023-02-08T22:02:25.677Z,64.85
2023-02-08T22:05:11.884Z,64.87
2023-02-08T22:07:45.681Z,64.90
2023-02-08T22:10:15.727Z,65.15
2023-02-08T22:12:43.630Z,65.33
2023-02-08T22:15:12.848Z,65.51
2023-02-08T22:17:42.534Z,65.49
2023-02-08T22:20:11.451Z,65.53
2023-02-08T22:22:39.698Z,65.66
2023-02-08T22:25:08.130Z,65.78
2023-02-08T22:27:36.010Z,65.95
2023-02-08T22:30:05.939Z,65.60
2023-02-08T22:32:34.097Z,65.33
2023-02-08T22:35:03.694Z,65.57
2023-02-08T22:37:33.783Z,65.98
2023-02-08T22:40:01.908Z,66.43
2023-02-08T22:42:30.273Z,66.84
2023-02-08T22:44:58.415Z,66.28
2023-02-08T22:47:26.620Z,66.36
2023-02-08T22:49:58.487Z,65.83
2023-02-08T22:52:28.367Z,65.50
2023-02-08T22:54:56.624Z,65.74
2023-02-08T22:57:24.610Z,65.84
2023-02-08T22:59:52.753Z,65.88
2023-02-08T23:02:20.648Z,66.07
2023-02-08T23:04:48.655Z,65.72
2023-02-08T23:07:16.809Z,65.72
2023-02-08T23:09:46.717Z,66.36
2023-02-08T23:12:14.733Z,66.15
2023-02-08T23:14:42.689Z,66.27
2023-02-08T23:17:11.591Z,66.34
2023-02-08T23:19:39.688Z,67.01
2023-02-08T23:22:07.699Z,66.18
2023-02-08T23:24:35.750Z,66.09
2023-02-08T23:27:05.441Z,66.18
2023-02-08T23:29:33.526Z,66.43
2023-02-08T23:32:01.473Z,66.46
2023-02-08T23:34:29.859Z,66.47
2023-02-08T23:36:57.873Z,66.66
2023-02-08T23:39:28.874Z,66.73
2023-02-08T23:41:57.126Z,66.87
2023-02-08T23:44:26.593Z,66.46
2023-02-08T23:46:54.597Z,66.92
2023-02-08T23:49:22.765Z,66.68
2023-02-08T23:51:50.585Z,66.77
2023-02-08T23:54:18.486Z,66.99
2023-02-08T23:56:46.350Z,66.85
2023-02-08T23:59:14.157Z,67.24
